Date,TemperatureHighF,TemperatureAvgF,TemperatureLowF,DewpointHighF,DewpointAvgF,DewpointLowF,HumidityHigh,HumidityAvg,HumidityLow,PressureMaxIn,PressureMinIn,WindSpeedMaxMPH,WindSpeedAvgMPH,GustSpeedMaxMPH,PrecipitationSumIn
2013-3-1,58,43,28,34,29,23,85,60,39,30.23,30.12,10,2,10,0.00
2013-3-2,58,40,30,28,24,21,80,56,27,30.35,30.17,12,2,12,0.00
2013-3-3,70,45,28,43,29,23,84,58,29,30.18,29.79,14,4,14,0.00
2013-3-4,80,68,55,57,51,42,76,56,40,29.79,29.57,16,7,16,0.00
2013-3-5,64,49,40,56,30,21,76,50,23,30.29,29.64,16,4,16,0.00
2013-3-6,72,45,36,30,26,20,62,48,16,30.39,30.13,11,2,11,0.00
2013-3-7,73,52,32,36,31,24,79,49,19,30.20,30.04,12,3,12,0.00
2013-3-8,66,59,50,55,49,36,77,70,48,30.15,29.96,10,4,10,0.00
2013-3-9,71,66,59,62,58,53,85,78,72,29.97,29.61,21,8,21,0.04
2013-3-10,65,52,38,60,42,30,92,71,51,30.02,29.64,14,3,14,0.50
2013-3-11,68,44,31,33,29,23,86,61,25,30.05,29.94,9,1,9,0.00
2013-3-12,79,51,30,37,32,26,87,55,19,30.23,29.98,10,2,10,0.00
2013-3-13,83,55,36,41,35,31,86,54,21,30.39,30.23,10,2,10,0.00
2013-3-14,78,58,39,49,41,32,80,56,33,30.30,30.12,12,3,12,0.00
2013-3-15,81,65,52,55,49,44,86,58,29,30.12,29.85,16,5,16,0.00
2013-3-16,83,69,57,60,55,50,88,64,41,29.85,29.65,19,7,19,0.00
2013-3-17,79,68,55,63,58,49,89,72,54,29.74,29.59,13,4,13,0.00
2013-3-18,79,64,52,64,52,40,91,68,38,29.95,29.58,15,4,15,0.00
2013-3-19,72,58,43,45,40,36,78,54,34,30.05,29.89,12,3,12,0.00
2013-3-20,80,60,45,42,36,30,69,45,19,30.23,30.02,11,3,11,0.00
2013-3-21,69,60,48,55,42,31,73,53,41,29.93,29.54,16,7,16,0.00
2013-3-22,64,56,48,59,50,44,88,82,72,29.78,29.54,12,4,13,0.00
2013-3-23,58,51,46,52,47,44,94,88,79,29.89,29.59,10,3,10,0.31
2013-3-24,58,47,39,48,33,24,90,61,36,30.10,29.69,14,4,14,0.02
2013-3-25,58,43,27,27,22,17,80,46,23,30.33,30.10,10,2,11,0.00
2013-3-26,68,43,24,31,23,18,83,50,23,30.43,30.25,9,1,9,0.00
2013-3-27,72,53,32,39,32,24,77,48,24,30.27,30.05,14,4,14,0.00
2013-3-28,72,62,49,56,51,38,83,68,53,30.18,30.04,12,4,12,0.00
2013-3-29,76,67,59,59,57,54,85,71,54,30.13,30.00,10,4,10,0.00
2013-3-30,74,66,56,65,60,53,92,82,67,30.03,29.83,11,3,11,0.95
2013-3-31,83,67,55,63,59,52,93,77,44,29.91,29.76,15,2,15,0.54